createdAt,value
2019-01-28T00:01:59.233Z,8.17
2019-01-28T00:07:00.724Z,7.67
2019-01-28T00:09:35.305Z,5.90
2019-01-28T00:12:00.864Z,8.93
2019-01-28T00:14:05.557Z,7.67
2019-01-28T00:19:25.805Z,5.57
2019-01-28T00:21:47.299Z,5.57
2019-01-28T00:24:05.872Z,9.23
2019-01-28T00:26:21.853Z,5.57
2019-01-28T00:33:38.348Z,7.77
2019-01-28T00:36:19.493Z,5.50
2019-01-28T00:38:23.827Z,9.83
2019-01-28T00:43:26.849Z,7.50
2019-01-28T00:47:46.859Z,9.27
2019-01-28T00:56:13.875Z,5.40
2019-01-28T01:01:12.352Z,5.17
2019-01-28T01:03:33.667Z,7.47
2019-01-28T01:06:08.609Z,4.73
2019-01-28T01:08:18.567Z,9.23
2019-01-28T01:13:00.112Z,6.27
2019-01-28T01:15:17.057Z,7.57
2019-01-28T01:17:33.822Z,7.77
2019-01-28T01:19:50.052Z,10.33
2019-01-28T01:22:16.191Z,9.13
2019-01-28T01:24:35.628Z,6.30
2019-01-28T01:26:54.575Z,7.67
2019-01-28T01:29:10.466Z,7.60
2019-01-28T01:31:31.946Z,8.77
2019-01-28T01:33:47.395Z,11.23
2019-01-28T01:36:45.959Z,9.00
2019-01-28T01:38:57.023Z,7.80
2019-01-28T01:41:33.543Z,10.83
2019-01-28T01:43:41.940Z,7.43
2019-01-28T01:46:01.524Z,7.87
2019-01-28T01:48:26.352Z,9.10
2019-01-28T01:50:44.896Z,9.13
2019-01-28T01:53:06.199Z,7.90
2019-01-28T01:55:28.086Z,7.67
2019-01-28T01:57:48.372Z,6.33
2019-01-28T02:00:09.442Z,8.43
2019-01-28T02:02:33.514Z,12.43
2019-01-28T02:05:16.062Z,12.33
2019-01-28T02:07:32.793Z,10.63
2019-01-28T02:09:47.471Z,8.47
2019-01-28T02:12:08.180Z,7.80
2019-01-28T02:14:24.890Z,8.77
2019-01-28T02:16:44.632Z,10.53
2019-01-28T02:19:19.830Z,9.90
2019-01-28T02:21:28.746Z,9.27
2019-01-28T02:24:04.012Z,7.67
2019-01-28T02:28:38.849Z,8.23
2019-01-28T02:31:13.886Z,6.97
2019-01-28T02:33:24.147Z,9.17
2019-01-28T02:36:07.726Z,9.03
2019-01-28T02:43:55.240Z,7.67
2019-01-28T02:46:16.989Z,6.53
2019-01-28T02:49:01.131Z,9.13
2019-01-28T02:51:03.641Z,6.53
2019-01-28T02:53:26.143Z,7.67
2019-01-28T02:55:48.324Z,9.20
2019-01-28T02:58:10.246Z,7.30
2019-01-28T03:00:32.128Z,7.13
2019-01-28T03:02:54.293Z,10.27
2019-01-28T03:05:16.323Z,4.87
2019-01-28T03:07:33.784Z,6.73
2019-01-28T03:09:50.739Z,6.37
2019-01-28T03:12:07.302Z,4.83
2019-01-28T03:14:23.289Z,7.53
2019-01-28T03:16:39.970Z,6.57
2019-01-28T03:18:56.394Z,5.03
2019-01-28T03:21:12.949Z,5.80
2019-01-28T03:23:29.631Z,5.27
2019-01-28T03:25:46.163Z,3.10
2019-01-28T03:28:02.424Z,4.57
2019-01-28T03:30:18.965Z,4.33
2019-01-28T03:32:35.448Z,4.87
2019-01-28T03:34:51.963Z,5.93
2019-01-28T03:37:08.274Z,4.73
2019-01-28T03:39:24.991Z,3.93
2019-01-28T03:41:41.744Z,3.50
2019-01-28T03:46:15.224Z,2.90
2019-01-28T03:48:31.541Z,4.60
2019-01-28T03:50:55.267Z,4.03
2019-01-28T03:53:12.685Z,2.40
2019-01-28T03:55:28.732Z,4.00
2019-01-28T03:57:46.044Z,4.13
2019-01-28T04:00:04.755Z,3.30
2019-01-28T04:02:19.896Z,3.30
2019-01-28T04:06:55.783Z,2.23
2019-01-28T04:09:13.080Z,2.70
2019-01-28T04:11:28.897Z,3.73
2019-01-28T04:13:45.246Z,2.10
2019-01-28T04:16:02.004Z,4.40
2019-01-28T04:18:18.744Z,3.20
2019-01-28T04:20:35.056Z,2.97
2019-01-28T04:22:51.687Z,3.13
2019-01-28T04:25:16.905Z,2.20
2019-01-28T04:27:33.294Z,3.40
2019-01-28T04:29:49.395Z,2.47
2019-01-28T04:32:13.279Z,2.47
2019-01-28T04:34:36.992Z,2.53
2019-01-28T04:37:00.758Z,1.90
2019-01-28T04:39:24.561Z,3.50
2019-01-28T04:41:40.604Z,4.20
2019-01-28T04:43:56.735Z,2.57
2019-01-28T04:46:16.148Z,2.07
2019-01-28T04:48:32.019Z,3.27
2019-01-28T04:50:48.310Z,1.30
2019-01-28T04:53:04.588Z,1.97
2019-01-28T04:55:21.283Z,2.27
2019-01-28T04:57:26.315Z,1.63
2019-01-28T04:59:50.131Z,1.33
2019-01-28T05:02:13.831Z,3.47
2019-01-28T05:04:30.587Z,1.30
2019-01-28T05:06:47.252Z,3.03
2019-01-28T05:09:04.330Z,2.73
2019-01-28T05:11:20.525Z,2.93
2019-01-28T05:13:25.300Z,1.97
2019-01-28T05:18:32.153Z,2.00
2019-01-28T05:20:49.490Z,0.90
2019-01-28T05:23:06.233Z,1.57
2019-01-28T05:25:22.816Z,1.47
2019-01-28T05:27:39.010Z,2.43
2019-01-28T05:30:13.462Z,1.30
2019-01-28T05:32:26.770Z,1.10
2019-01-28T05:34:50.525Z,0.93
2019-01-28T05:37:06.520Z,3.20
2019-01-28T05:39:22.744Z,2.63
2019-01-28T05:41:38.923Z,2.07
2019-01-28T05:43:55.467Z,1.30
2019-01-28T05:46:12.072Z,2.20
2019-01-28T05:48:27.948Z,1.93
2019-01-28T05:50:43.972Z,2.57
2019-01-28T05:53:00.676Z,2.70
2019-01-28T05:55:17.082Z,2.40
2019-01-28T05:57:33.582Z,1.97
2019-01-28T05:59:49.812Z,2.20
2019-01-28T06:02:07.640Z,3.07
2019-01-28T06:04:25.145Z,1.20
2019-01-28T06:06:30.186Z,2.20
2019-01-28T06:08:53.947Z,2.33
2019-01-28T06:11:12.694Z,1.20
2019-01-28T06:13:29.257Z,1.17
2019-01-28T06:18:20.965Z,3.30
2019-01-28T06:23:25.765Z,2.40
2019-01-28T06:25:20.347Z,1.50
2019-01-28T06:30:19.077Z,3.43
2019-01-28T06:32:23.894Z,1.90
2019-01-28T06:35:01.387Z,2.80
2019-01-28T06:37:13.160Z,1.87
2019-01-28T06:39:29.470Z,2.10
2019-01-28T06:41:57.445Z,2.23
2019-01-28T06:44:21.212Z,3.03
2019-01-28T06:46:43.657Z,4.37
2019-01-28T06:49:02.996Z,3.80
2019-01-28T06:51:10.450Z,2.27
2019-01-28T06:56:06.736Z,1.87
2019-01-28T06:58:23.417Z,2.77
2019-01-28T07:00:47.136Z,3.80
2019-01-28T07:03:03.755Z,3.60
2019-01-28T07:05:08.619Z,3.73
2019-01-28T07:07:13.571Z,1.97
2019-01-28T07:09:37.333Z,3.63
2019-01-28T07:12:01.151Z,3.30
2019-01-28T07:14:24.998Z,4.00
2019-01-28T07:16:35.144Z,5.50
2019-01-28T07:18:58.904Z,6.20
2019-01-28T07:23:38.593Z,2.60
2019-01-28T07:25:54.918Z,6.70
2019-01-28T07:28:12.576Z,5.03
2019-01-28T07:30:28.628Z,5.80
2019-01-28T07:32:45.168Z,6.60
2019-01-28T07:34:49.878Z,6.47
2019-01-28T07:36:56.271Z,6.10
2019-01-28T07:39:01.098Z,3.67
2019-01-28T07:41:05.866Z,4.00
2019-01-28T07:43:29.606Z,6.03
2019-01-28T07:45:53.481Z,6.13
2019-01-28T07:48:11.257Z,6.37
2019-01-28T07:50:31.162Z,4.57
2019-01-28T07:52:47.433Z,6.07
2019-01-28T07:55:03.743Z,3.53
2019-01-28T07:57:20.357Z,3.17
2019-01-28T07:59:39.807Z,5.33
2019-01-28T08:01:56.418Z,4.07
2019-01-28T08:04:18.568Z,1.80
2019-01-28T08:06:36.228Z,4.23
2019-01-28T08:08:54.829Z,6.00
2019-01-28T08:11:11.841Z,5.30
2019-01-28T08:13:28.493Z,3.43
2019-01-28T08:15:45.483Z,4.40
2019-01-28T08:18:10.859Z,4.53
2019-01-28T08:20:36.990Z,4.60
2019-01-28T08:22:53.376Z,8.43
2019-01-28T08:25:12.596Z,6.03
2019-01-28T08:27:29.221Z,4.40
2019-01-28T08:29:45.585Z,1.97
2019-01-28T08:32:03.845Z,3.40
2019-01-28T08:34:24.286Z,2.73
2019-01-28T08:36:42.635Z,2.70
2019-01-28T08:39:00.162Z,3.63
2019-01-28T08:41:23.810Z,3.53
2019-01-28T08:46:14.513Z,3.37
2019-01-28T08:48:30.540Z,6.33
2019-01-28T08:50:35.571Z,4.50
2019-01-28T09:01:18.153Z,2.77
2019-01-28T09:03:34.756Z,2.57
2019-01-28T09:05:50.911Z,2.07
2019-01-28T09:08:07.329Z,2.77
2019-01-28T09:10:23.396Z,1.97
2019-01-28T09:12:42.829Z,4.63
2019-01-28T09:15:03.823Z,2.90
2019-01-28T09:17:19.870Z,5.53
2019-01-28T09:19:36.104Z,3.83
2019-01-28T09:21:52.801Z,5.37
2019-01-28T09:24:11.951Z,4.00
2019-01-28T09:26:28.406Z,15.30
2019-01-28T09:28:44.592Z,17.17
2019-01-28T09:31:26.260Z,27.07
2019-01-28T09:33:52.877Z,23.20
2019-01-28T09:36:10.359Z,6.37
2019-01-28T09:38:29.648Z,4.30
2019-01-28T09:40:45.879Z,6.77
2019-01-28T09:43:02.184Z,4.70
2019-01-28T09:45:25.149Z,3.83
2019-01-28T09:48:12.326Z,5.23
2019-01-28T09:50:00.187Z,5.40
2019-01-28T09:52:20.717Z,4.00
2019-01-28T09:54:38.042Z,4.67
2019-01-28T09:56:58.662Z,4.43
2019-01-28T09:59:18.302Z,3.07
2019-01-28T10:01:34.521Z,2.90
2019-01-28T10:03:51.044Z,2.97
2019-01-28T10:06:21.176Z,4.17
2019-01-28T10:08:24.536Z,4.67
2019-01-28T10:13:01.282Z,3.17
2019-01-28T10:15:17.376Z,2.90
2019-01-28T10:17:34.012Z,3.57
2019-01-28T10:19:53.238Z,4.33
2019-01-28T10:22:09.768Z,3.50
2019-01-28T10:24:26.244Z,4.07
2019-01-28T10:26:42.448Z,4.77
2019-01-28T10:29:01.946Z,4.10
2019-01-28T10:31:18.626Z,1.87
2019-01-28T10:33:35.086Z,2.60
2019-01-28T10:35:52.223Z,3.60
2019-01-28T10:38:08.993Z,3.90
2019-01-28T10:40:32.754Z,3.00
2019-01-28T10:42:50.072Z,2.57
2019-01-28T10:45:06.422Z,3.37
2019-01-28T10:47:23.226Z,4.10
2019-01-28T10:49:39.731Z,4.40
2019-01-28T10:51:58.932Z,3.13
2019-01-28T10:54:03.692Z,3.20
2019-01-28T10:56:47.798Z,2.10
2019-01-28T10:59:11.662Z,2.70
2019-01-28T11:01:27.802Z,2.37
2019-01-28T11:03:47.588Z,2.47
2019-01-28T11:06:03.859Z,4.30
2019-01-28T11:08:23.411Z,2.57
2019-01-28T11:10:39.432Z,2.90
2019-01-28T11:12:55.898Z,1.70
2019-01-28T11:15:15.927Z,3.80
2019-01-28T11:17:50.747Z,2.93
2019-01-28T11:20:08.666Z,2.43
2019-01-28T11:22:25.303Z,1.73
2019-01-28T11:24:46.347Z,2.47
2019-01-28T11:32:32.866Z,3.53
2019-01-28T11:34:48.945Z,1.90
2019-01-28T11:36:53.536Z,2.23
2019-01-28T11:39:17.390Z,4.13
2019-01-28T11:42:19.131Z,4.20
2019-01-28T11:44:35.664Z,3.97
2019-01-28T11:46:51.667Z,2.23
2019-01-28T11:49:09.047Z,4.07
2019-01-28T11:51:25.478Z,3.33
2019-01-28T11:53:41.958Z,1.60
2019-01-28T11:55:58.376Z,2.17
2019-01-28T11:58:14.824Z,2.43
2019-01-28T12:00:34.682Z,1.73
2019-01-28T12:02:51.053Z,3.73
2019-01-28T12:05:11.320Z,1.30
2019-01-28T12:07:27.306Z,0.93
2019-01-28T12:09:43.801Z,1.73
2019-01-28T12:12:00.036Z,0.97
2019-01-28T12:14:20.807Z,1.57
2019-01-28T12:16:39.622Z,2.73
2019-01-28T12:18:57.513Z,2.33
2019-01-28T12:21:13.812Z,5.73
2019-01-28T12:23:34.372Z,1.73
2019-01-28T12:25:48.644Z,1.90
2019-01-28T12:28:04.673Z,2.07
2019-01-28T12:30:22.869Z,1.83
2019-01-28T12:32:39.185Z,1.50
2019-01-28T12:34:56.920Z,2.70
2019-01-28T12:37:19.207Z,1.00
2019-01-28T12:39:54.030Z,0.80
2019-01-28T12:41:57.773Z,2.20
2019-01-28T12:44:14.324Z,1.40
2019-01-28T12:46:30.779Z,1.27
2019-01-28T12:48:50.678Z,0.80
2019-01-28T12:50:55.349Z,1.63
2019-01-28T12:53:33.183Z,2.23
2019-01-28T12:55:39.408Z,0.93
2019-01-28T12:57:56.678Z,1.50
2019-01-28T13:00:17.358Z,2.20
2019-01-28T13:02:33.699Z,1.57
2019-01-28T13:04:49.892Z,1.40
2019-01-28T13:07:09.193Z,0.70
2019-01-28T13:09:26.704Z,0.83
2019-01-28T13:12:09.189Z,3.30
2019-01-28T13:14:07.041Z,2.63
2019-01-28T13:16:25.066Z,0.83
2019-01-28T13:18:41.753Z,1.87
2019-01-28T13:21:14.640Z,0.80
2019-01-28T13:23:35.233Z,3.00
2019-01-28T13:25:52.203Z,2.93
2019-01-28T13:28:08.994Z,1.27
2019-01-28T13:30:30.088Z,1.43
2019-01-28T13:32:48.292Z,2.13
2019-01-28T13:35:10.057Z,0.90
2019-01-28T13:37:32.670Z,1.07
2019-01-28T13:39:44.141Z,0.73
2019-01-28T13:45:39.730Z,1.13
2019-01-28T13:48:03.695Z,0.93
2019-01-28T13:53:27.625Z,2.90
2019-01-28T13:55:21.961Z,1.63
2019-01-28T13:57:49.565Z,0.90
2019-01-28T14:01:03.328Z,1.90
2019-01-28T14:03:11.274Z,0.80
2019-01-28T14:05:44.828Z,0.93
2019-01-28T14:12:44.254Z,1.20
2019-01-28T14:16:04.785Z,1.93
2019-01-28T14:20:34.878Z,1.10
2019-01-28T14:23:04.408Z,1.70
2019-01-28T14:25:13.630Z,1.53
2019-01-28T14:27:32.979Z,1.50
2019-01-28T14:32:36.288Z,1.80
2019-01-28T14:37:29.760Z,1.70
2019-01-28T14:39:25.082Z,1.67
2019-01-28T14:41:42.882Z,1.53
2019-01-28T14:44:22.325Z,1.10
2019-01-28T14:46:24.686Z,1.77
2019-01-28T14:48:49.001Z,1.53
2019-01-28T14:51:22.772Z,1.53
2019-01-28T14:53:39.165Z,1.00
2019-01-28T14:56:25.303Z,0.80
2019-01-28T14:58:42.389Z,1.27
2019-01-28T15:01:02.416Z,3.80
2019-01-28T15:03:21.329Z,2.13
2019-01-28T15:05:40.485Z,1.33
2019-01-28T15:07:57.783Z,1.40
2019-01-28T15:10:32.434Z,2.63
2019-01-28T15:12:53.286Z,2.07
2019-01-28T15:15:31.764Z,1.70
2019-01-28T15:20:54.384Z,1.60
2019-01-28T15:22:43.736Z,1.77
2019-01-28T15:25:04.551Z,1.80
2019-01-28T15:32:25.073Z,2.87
2019-01-28T15:37:50.227Z,2.73
2019-01-28T15:40:29.782Z,2.00
2019-01-28T15:42:32.366Z,2.43
2019-01-28T15:44:49.689Z,2.17
2019-01-28T15:52:19.727Z,2.00
2019-01-28T15:54:36.998Z,1.13
2019-01-28T15:57:06.989Z,2.50
2019-01-28T15:59:26.522Z,1.93
2019-01-28T16:01:55.448Z,1.83
2019-01-28T16:04:07.734Z,1.73
2019-01-28T16:06:19.754Z,1.60
2019-01-28T16:08:25.295Z,1.83
2019-01-28T16:10:49.296Z,2.37
2019-01-28T16:13:14.004Z,2.47
2019-01-28T16:15:35.128Z,2.47
2019-01-28T16:18:11.833Z,2.33
2019-01-28T16:20:18.586Z,1.60
2019-01-28T16:25:21.209Z,1.50
2019-01-28T16:27:39.855Z,1.60
2019-01-28T16:29:59.011Z,1.83
2019-01-28T16:35:28.652Z,4.17
2019-01-28T16:37:45.681Z,2.20
2019-01-28T16:40:05.270Z,3.13
2019-01-28T16:42:25.163Z,3.33
2019-01-28T16:44:48.664Z,2.00
2019-01-28T16:47:07.840Z,6.50
2019-01-28T16:49:27.761Z,3.03
2019-01-28T16:51:56.547Z,3.77
2019-01-28T16:54:13.458Z,5.17
2019-01-28T16:56:34.379Z,3.30
2019-01-28T17:01:08.204Z,2.63
2019-01-28T17:03:24.787Z,3.80
2019-01-28T17:05:47.974Z,6.37
2019-01-28T17:08:14.055Z,4.43
2019-01-28T17:11:04.385Z,2.67
2019-01-28T17:16:00.107Z,2.83
2019-01-28T17:18:17.589Z,5.00
2019-01-28T17:20:35.626Z,4.67
2019-01-28T17:22:56.037Z,3.83
2019-01-28T17:25:03.527Z,5.13
2019-01-28T17:27:47.349Z,4.93
2019-01-28T17:30:17.236Z,4.30
2019-01-28T17:32:33.233Z,4.63
2019-01-28T17:34:51.875Z,5.47
2019-01-28T17:36:58.309Z,7.40
2019-01-28T17:39:53.456Z,3.83
2019-01-28T17:44:14.258Z,4.13
2019-01-28T17:46:30.746Z,4.77
2019-01-28T17:48:47.118Z,4.97
2019-01-28T17:50:54.335Z,6.63
2019-01-28T17:53:38.370Z,6.00
2019-01-28T17:55:43.333Z,6.33
2019-01-28T17:58:07.779Z,9.20
2019-01-28T18:00:29.637Z,8.97
2019-01-28T18:02:31.414Z,9.97
2019-01-28T18:07:29.562Z,10.80
2019-01-28T18:09:34.272Z,11.00
2019-01-28T18:11:58.956Z,8.57
2019-01-28T18:14:20.611Z,10.27
2019-01-28T18:16:46.627Z,11.93
2019-01-28T18:21:27.298Z,12.93
2019-01-28T18:23:54.242Z,11.10
2019-01-28T18:26:10.561Z,11.70
2019-01-28T18:28:29.338Z,12.33
2019-01-28T18:30:47.295Z,12.00
2019-01-28T18:33:41.271Z,11.87
2019-01-28T18:35:29.238Z,13.97
2019-01-28T18:37:49.557Z,10.80
2019-01-28T18:42:46.670Z,13.87
2019-01-28T18:45:18.012Z,8.53
2019-01-28T18:49:42.105Z,12.40
2019-01-28T18:51:49.057Z,15.77
2019-01-28T18:56:51.255Z,11.13
2019-01-28T18:59:07.784Z,8.97
2019-01-28T19:01:29.740Z,9.97
2019-01-28T19:03:46.009Z,11.50
2019-01-28T19:06:22.484Z,9.77
2019-01-28T19:08:49.347Z,12.53
2019-01-28T19:11:47.306Z,11.93
2019-01-28T19:14:19.133Z,9.37
2019-01-28T19:16:56.295Z,16.13
2019-01-28T19:19:32.964Z,12.20
2019-01-28T19:24:27.779Z,14.63
2019-01-28T19:26:52.179Z,10.07
2019-01-28T19:29:13.356Z,11.23
2019-01-28T19:34:16.802Z,9.33
2019-01-28T19:36:34.941Z,10.53
2019-01-28T19:38:52.671Z,18.43
2019-01-28T19:41:11.701Z,6.60
2019-01-28T19:43:34.153Z,12.93
2019-01-28T19:45:50.549Z,9.43
2019-01-28T19:50:54.014Z,10.43
2019-01-28T19:53:13.502Z,7.50
2019-01-28T19:55:34.503Z,8.00
2019-01-28T20:03:51.137Z,7.53
2019-01-28T20:06:08.296Z,10.23
2019-01-28T20:08:24.306Z,8.03
2019-01-28T20:11:11.065Z,9.50
2019-01-28T20:13:26.334Z,12.23
2019-01-28T20:18:32.659Z,9.20
2019-01-28T20:23:14.132Z,12.10
2019-01-28T20:25:37.978Z,8.70
2019-01-28T20:27:50.753Z,12.50
2019-01-28T20:30:17.791Z,9.37
2019-01-28T20:35:18.391Z,11.93
2019-01-28T20:37:34.660Z,8.90
2019-01-28T20:39:50.828Z,11.43
2019-01-28T20:42:09.285Z,12.43
2019-01-28T20:44:32.166Z,10.23
2019-01-28T20:49:14.513Z,8.30
2019-01-28T20:51:37.992Z,12.10
2019-01-28T20:59:42.632Z,9.33
2019-01-28T21:02:09.426Z,8.47
2019-01-28T21:04:38.451Z,10.97
2019-01-28T21:06:54.522Z,11.03
2019-01-28T21:09:14.984Z,9.43
2019-01-28T21:11:37.271Z,8.43
2019-01-28T21:13:55.062Z,9.97
2019-01-28T21:18:27.768Z,10.53
2019-01-28T21:20:45.344Z,8.57
2019-01-28T21:23:03.339Z,11.67
2019-01-28T21:25:08.801Z,8.67
2019-01-28T21:27:13.689Z,13.87
2019-01-28T21:29:57.868Z,8.00
2019-01-28T21:32:52.304Z,11.97
2019-01-28T21:34:39.713Z,15.03
2019-01-28T21:39:33.130Z,11.50
2019-01-28T21:41:49.438Z,10.03
2019-01-28T21:44:08.510Z,10.77
2019-01-28T21:46:24.844Z,11.70
2019-01-28T21:48:44.174Z,17.40
2019-01-28T21:50:49.118Z,9.33
2019-01-28T21:53:12.829Z,12.10
2019-01-28T21:55:29.272Z,11.77
2019-01-28T21:57:45.315Z,13.20
2019-01-28T22:00:04.930Z,15.73
2019-01-28T22:05:02.404Z,8.33
2019-01-28T22:07:23.947Z,10.77
2019-01-28T22:09:49.589Z,9.90
2019-01-28T22:12:14.771Z,10.33
2019-01-28T22:17:21.027Z,12.43
2019-01-28T22:19:41.224Z,8.27
2019-01-28T22:21:59.573Z,10.23
2019-01-28T22:24:04.207Z,11.87
2019-01-28T22:26:41.619Z,10.37
2019-01-28T22:28:59.265Z,9.03
2019-01-28T22:31:15.328Z,6.70
2019-01-28T22:33:34.519Z,9.27
2019-01-28T22:35:50.812Z,8.37
2019-01-28T22:38:12.719Z,11.30
2019-01-28T22:40:28.887Z,7.47
2019-01-28T22:42:50.526Z,8.50
2019-01-28T22:45:16.519Z,8.27
2019-01-28T22:47:40.026Z,8.10
2019-01-28T22:50:01.977Z,8.27
2019-01-28T22:55:46.414Z,12.33
2019-01-28T23:02:54.096Z,9.77
2019-01-28T23:05:13.015Z,10.33
2019-01-28T23:07:29.857Z,7.93
2019-01-28T23:12:49.766Z,9.93
2019-01-28T23:15:38.078Z,7.63
2019-01-28T23:17:48.619Z,10.43
2019-01-28T23:28:09.653Z,8.10
2019-01-28T23:34:56.508Z,7.90
2019-01-28T23:37:14.345Z,6.50
2019-01-28T23:39:37.027Z,7.20
2019-01-28T23:41:53.511Z,5.93
2019-01-28T23:44:12.304Z,8.70
2019-01-28T23:46:30.163Z,10.27
2019-01-28T23:49:08.499Z,8.60
2019-01-28T23:51:09.198Z,8.70
2019-01-28T23:53:28.879Z,5.37
2019-01-28T23:56:03.072Z,8.03
2019-01-28T23:58:28.816Z,8.77
